Time;durP1;ratioP1;P1;durP2;ratioP2;P2;SDS_P1;SDS_P2;PMS_P1;PMS_P2;Temp;Humidity;BMP_temperature;BMP_pressure;BME280_temperature;BME280_humidity;BME280_pressure;Samples;Min_cycle;Max_cycle;Signal;HPM_P1;HPM_P2
2023/12/08 00:06:35;;;;;;;0.75;0.30;;;-3.40;99.90;;;;;;20833580;28;20457;-55
2023/12/08 00:16:37;;;;;;;0.60;0.30;;;-3.20;99.90;;;;;;20922892;28;20048;-53
2023/12/08 00:26:42;;;;;;;0.60;0.20;;;-2.90;99.90;;;;;;20982092;28;20049;-52
2023/12/08 00:36:44;;;;;;;0.68;0.30;;;-2.90;99.90;;;;;;20867524;28;20029;-51
2023/12/08 00:46:46;;;;;;;0.93;0.30;;;-2.90;99.90;;;;;;20879781;28;20483;-50
2023/12/08 00:56:54;;;;;;;0.70;0.20;;;-3.10;99.90;;;;;;20908562;28;20036;-52
2023/12/08 01:06:55;;;;;;;0.60;0.22;;;-3.00;99.90;;;;;;20907878;28;20028;-55
2023/12/08 01:16:57;;;;;;;0.85;0.22;;;-2.90;99.90;;;;;;20908908;28;20568;-55
2023/12/08 01:26:59;;;;;;;0.40;0.20;;;-2.80;99.90;;;;;;20906702;28;20045;-53
2023/12/08 01:37:00;;;;;;;0.73;0.20;;;-2.90;99.90;;;;;;20906660;28;20369;-51
2023/12/08 01:47:02;;;;;;;0.43;0.20;;;-2.70;99.90;;;;;;20905961;28;20040;-54
2023/12/08 01:57:04;;;;;;;0.80;0.30;;;-2.60;99.90;;;;;;20905569;28;20479;-49
2023/12/08 02:07:06;;;;;;;0.75;0.32;;;-2.40;99.90;;;;;;20905693;28;20025;-53
2023/12/08 02:17:21;;;;;;;0.40;0.22;;;-2.40;99.90;;;;;;20919650;28;20041;-52
2023/12/08 02:27:23;;;;;;;0.70;0.40;;;-2.30;99.90;;;;;;20998889;28;20047;-54
2023/12/08 02:37:25;;;;;;;1.27;0.40;;;-2.20;99.90;;;;;;21002104;28;20047;-48
2023/12/08 02:47:27;;;;;;;0.75;0.32;;;-2.10;99.90;;;;;;20983006;28;20063;-54
2023/12/08 02:57:29;;;;;;;0.95;0.40;;;-1.80;99.90;;;;;;20999946;28;20037;-56
2023/12/08 03:07:30;;;;;;;1.70;0.52;;;-1.60;99.90;;;;;;20999941;28;20024;-51
2023/12/08 03:17:32;;;;;;;1.08;0.50;;;-1.40;99.90;;;;;;20998190;28;20068;-50
2023/12/08 03:27:33;;;;;;;1.35;0.85;;;-0.90;99.90;;;;;;20997987;28;20033;-51
2023/12/08 03:37:35;;;;;;;1.15;0.60;;;-1.10;99.90;;;;;;20979415;28;20040;-55
2023/12/08 03:47:37;;;;;;;0.77;0.32;;;-1.40;99.90;;;;;;20993973;28;20024;-54
2023/12/08 03:57:42;;;;;;;1.48;0.82;;;-1.60;99.90;;;;;;20993134;28;20028;-47
2023/12/08 04:07:44;;;;;;;1.35;0.63;;;-1.60;99.90;;;;;;20981688;28;20083;-54
2023/12/08 04:17:45;;;;;;;1.30;0.40;;;-1.60;99.90;;;;;;20991955;28;20040;-52
2023/12/08 04:27:47;;;;;;;0.75;0.30;;;-1.60;99.90;;;;;;20991759;28;20033;-55
2023/12/08 04:37:50;;;;;;;1.30;0.35;;;-1.70;99.90;;;;;;20990865;28;20032;-54
2023/12/08 04:47:52;;;;;;;1.17;0.40;;;-1.50;99.90;;;;;;20989314;28;20078;-55
2023/12/08 04:57:54;;;;;;;0.80;0.40;;;-1.30;99.90;;;;;;20982141;28;20029;-52
2023/12/08 05:07:55;;;;;;;0.90;0.50;;;-1.50;99.90;;;;;;20989728;28;20512;-51
2023/12/08 05:17:57;;;;;;;1.35;0.60;;;-1.80;99.90;;;;;;20988378;28;20045;-48
2023/12/08 05:27:59;;;;;;;1.70;0.70;;;-1.90;99.90;;;;;;20988099;28;20040;-50
2023/12/08 05:38:04;;;;;;;1.60;0.70;;;-1.90;99.90;;;;;;20988174;28;20094;-55
2023/12/08 05:48:06;;;;;;;2.20;0.90;;;-1.90;99.90;;;;;;20993147;28;20078;-51
2023/12/08 05:58:07;;;;;;;1.75;0.82;;;-1.90;99.90;;;;;;21003521;28;20502;-55
2023/12/08 06:08:09;;;;;;;1.52;0.55;;;-1.90;99.90;;;;;;20997499;28;20409;-52
2023/12/08 06:18:11;;;;;;;1.88;1.10;;;-1.70;99.90;;;;;;20870099;28;20041;-55
2023/12/08 06:28:13;;;;;;;3.65;1.45;;;-1.50;99.90;;;;;;20885469;28;20049;-54
2023/12/08 06:38:17;;;;;;;1.27;0.60;;;-1.30;99.90;;;;;;20826595;28;20053;-56
2023/12/08 06:48:21;;;;;;;1.77;1.02;;;-1.30;99.90;;;;;;20964717;28;20559;-48
2023/12/08 06:58:23;;;;;;;2.20;1.00;;;-1.20;99.90;;;;;;20997872;28;20036;-54
2023/12/08 07:08:25;;;;;;;1.92;1.20;;;-1.10;99.90;;;;;;20998793;28;20032;-52
2023/12/08 07:18:27;;;;;;;2.30;1.50;;;-1.00;99.90;;;;;;20980709;28;20033;-55
2023/12/08 07:28:29;;;;;;;2.55;1.42;;;-0.70;99.90;;;;;;20996386;28;20058;-51
2023/12/08 07:38:31;;;;;;;2.92;1.50;;;-0.60;99.90;;;;;;20991736;28;20040;-51
2023/12/08 07:48:33;;;;;;;5.80;2.25;;;-0.20;99.90;;;;;;20994149;28;20032;-53
2023/12/08 07:58:34;;;;;;;5.13;1.35;;;-0.10;99.90;;;;;;20994217;28;20032;-54
2023/12/08 08:08:36;;;;;;;2.80;1.35;;;-0.10;99.70;;;;;;20992902;28;20031;-48
2023/12/08 08:18:38;;;;;;;2.53;1.10;;;0.00;99.90;;;;;;20991960;28;20036;-53
2023/12/08 08:28:40;;;;;;;3.22;1.83;;;0.30;99.90;;;;;;20991919;28;20114;-51
2023/12/08 08:38:42;;;;;;;3.10;1.88;;;0.40;99.90;;;;;;20990945;28;20036;-52
2023/12/08 08:48:44;;;;;;;5.90;1.83;;;0.30;99.90;;;;;;20989141;28;20033;-53
2023/12/08 08:58:46;;;;;;;3.92;1.60;;;0.40;99.90;;;;;;20982291;28;20043;-51
2023/12/08 09:08:47;;;;;;;3.40;1.08;;;0.20;99.90;;;;;;20989840;28;20024;-52
2023/12/08 09:18:49;;;;;;;2.00;0.90;;;-0.10;99.90;;;;;;20988402;28;20559;-47
2023/12/08 09:28:51;;;;;;;1.98;1.05;;;-0.40;99.90;;;;;;20988005;28;20035;-51
2023/12/08 09:38:53;;;;;;;1.80;1.00;;;-0.10;99.90;;;;;;20988240;28;20078;-55
2023/12/08 09:48:58;;;;;;;2.33;0.98;;;0.40;99.90;;;;;;20987725;28;20110;-54
2023/12/08 09:59:01;;;;;;;1.58;0.63;;;0.90;99.90;;;;;;20987091;28;20040;-53
2023/12/08 10:09:07;;;;;;;1.67;1.00;;;1.50;99.90;;;;;;20987007;28;20032;-55
2023/12/08 10:19:11;;;;;;;1.38;0.70;;;2.10;99.90;;;;;;20985856;28;20052;-55
2023/12/08 10:29:16;;;;;;;1.33;0.90;;;1.90;99.90;;;;;;20987098;28;20539;-53
2023/12/08 10:39:18;;;;;;;1.67;0.90;;;2.00;99.90;;;;;;20997284;28;20036;-54
2023/12/08 10:49:20;;;;;;;2.10;1.00;;;1.90;99.90;;;;;;21001822;28;20048;-53
2023/12/08 10:59:25;;;;;;;1.77;1.00;;;2.10;99.90;;;;;;20998953;28;20033;-53
2023/12/08 11:09:34;;;;;;;1.83;0.85;;;2.00;99.90;;;;;;20998617;28;20035;-53
2023/12/08 11:19:37;;;;;;;2.38;1.17;;;1.60;99.90;;;;;;20996938;28;20106;-56
2023/12/08 11:30:11;;;;;;;1.60;0.95;;;1.40;99.90;;;;;;20997834;28;20036;-54
2023/12/08 11:40:13;;;;;;;2.40;1.20;;;1.40;99.90;;;;;;20980219;28;20394;-54
2023/12/08 11:50:17;;;;;;;1.95;1.25;;;1.60;99.90;;;;;;20994313;28;20035;-47
2023/12/08 12:00:35;;;;;;;1.15;0.80;;;1.70;99.90;;;;;;20993231;28;20032;-50
2023/12/08 12:10:39;;;;;;;1.88;0.95;;;1.90;99.90;;;;;;20993227;28;20032;-55
2023/12/08 12:20:43;;;;;;;2.40;0.98;;;2.00;99.90;;;;;;20992560;28;20048;-52
2023/12/08 12:30:51;;;;;;;1.95;0.95;;;1.70;99.90;;;;;;20989804;28;20106;-51
2023/12/08 12:40:55;;;;;;;1.63;0.80;;;1.80;99.90;;;;;;20990637;28;20432;-53
2023/12/08 12:50:57;;;;;;;0.95;0.60;;;2.00;99.90;;;;;;20990733;28;20032;-48
2023/12/08 13:01:13;;;;;;;1.13;0.70;;;2.10;99.90;;;;;;20965137;28;20032;-54
2023/12/08 13:11:14;;;;;;;1.38;0.60;;;1.90;99.90;;;;;;20988677;28;20040;-52
2023/12/08 13:21:16;;;;;;;1.65;0.80;;;1.80;99.90;;;;;;20988289;28;20079;-52
2023/12/08 13:31:18;;;;;;;1.77;0.90;;;1.60;99.90;;;;;;20986005;28;20040;-55
2023/12/08 13:41:20;;;;;;;1.65;0.90;;;1.40;99.90;;;;;;20988460;28;20041;-54
2023/12/08 13:51:21;;;;;;;2.50;0.68;;;1.20;99.90;;;;;;20987159;28;20028;-52
2023/12/08 14:01:23;;;;;;;1.42;0.80;;;1.00;99.90;;;;;;20986954;28;20033;-55
2023/12/08 14:11:25;;;;;;;1.20;0.80;;;0.80;99.90;;;;;;20994107;28;20024;-53
2023/12/08 14:21:27;;;;;;;2.00;1.00;;;0.70;99.90;;;;;;21002017;28;20090;-55
2023/12/08 14:31:28;;;;;;;2.53;1.38;;;0.60;99.90;;;;;;21001471;28;20091;-54
2023/12/08 14:41:30;;;;;;;2.85;0.95;;;0.40;99.90;;;;;;21000436;28;20036;-55
2023/12/08 14:51:31;;;;;;;2.20;1.10;;;0.30;99.90;;;;;;20999972;28;20028;-54
2023/12/08 15:01:34;;;;;;;2.42;1.52;;;0.20;99.90;;;;;;20995167;28;20028;-55
2023/12/08 15:11:35;;;;;;;2.60;1.20;;;0.10;99.90;;;;;;20998308;28;20079;-50
2023/12/08 15:21:39;;;;;;;2.55;1.45;;;0.10;99.90;;;;;;20989004;28;20041;-48
2023/12/08 15:31:40;;;;;;;2.88;1.70;;;0.00;99.90;;;;;;20992428;28;20117;-54
2023/12/08 15:41:45;;;;;;;2.30;1.60;;;-0.20;99.90;;;;;;20989893;28;20035;-50
2023/12/08 15:51:47;;;;;;;3.78;1.50;;;-0.30;99.90;;;;;;20995444;28;20028;-53
2023/12/08 16:01:56;;;;;;;3.47;1.50;;;-0.30;99.90;;;;;;20993388;28;20053;-54
2023/12/08 16:11:57;;;;;;;2.88;1.38;;;-0.40;99.90;;;;;;20983674;28;20429;-53
2023/12/08 16:21:59;;;;;;;1.80;1.25;;;-0.60;99.90;;;;;;20965834;28;20045;-53
2023/12/08 16:32:01;;;;;;;5.70;2.83;;;-0.60;99.90;;;;;;20985827;28;20049;-53
2023/12/08 16:42:03;;;;;;;2.33;1.30;;;-0.60;99.90;;;;;;20981280;28;20056;-52
2023/12/08 16:52:05;;;;;;;1.90;1.10;;;-0.40;99.90;;;;;;20987717;28;20113;-51
2023/12/08 17:02:07;;;;;;;1.38;0.90;;;-0.40;99.90;;;;;;20935935;28;20063;-53
2023/12/08 17:12:10;;;;;;;0.65;0.40;;;-0.40;99.90;;;;;;20931831;28;20044;-52
2023/12/08 17:22:12;;;;;;;0.50;0.40;;;-0.30;99.90;;;;;;20988386;28;20497;-54
2023/12/08 17:32:15;;;;;;;2.08;0.60;;;-0.30;99.90;;;;;;20984747;28;20032;-54
2023/12/08 17:42:17;;;;;;;1.20;0.47;;;-0.30;99.90;;;;;;20959181;28;20535;-54
2023/12/08 17:52:21;;;;;;;0.60;0.30;;;-0.30;99.90;;;;;;21003158;28;20474;-54
2023/12/08 18:02:23;;;;;;;0.95;0.60;;;-0.20;99.90;;;;;;21003124;28;20039;-48
2023/12/08 18:12:25;;;;;;;0.50;0.30;;;-0.20;99.90;;;;;;20981784;28;20032;-51
2023/12/08 18:22:28;;;;;;;1.55;0.30;;;-0.10;99.90;;;;;;20979570;28;20110;-54
2023/12/08 18:32:30;;;;;;;1.98;0.82;;;0.10;99.90;;;;;;20995619;28;20385;-51
2023/12/08 18:42:35;;;;;;;1.45;0.90;;;-0.10;99.90;;;;;;20997822;28;20032;-53
2023/12/08 18:52:37;;;;;;;1.70;0.80;;;-0.20;99.90;;;;;;20978651;28;20047;-50
2023/12/08 19:02:39;;;;;;;1.73;0.90;;;-0.40;99.90;;;;;;20993674;28;20040;-54
2023/12/08 19:12:40;;;;;;;1.40;0.80;;;-0.50;99.90;;;;;;20981455;28;20036;-54
2023/12/08 19:22:46;;;;;;;2.15;0.80;;;-0.50;99.90;;;;;;20968006;28;20375;-53
2023/12/08 19:32:48;;;;;;;1.55;0.95;;;-0.60;99.90;;;;;;20966395;28;20559;-54
2023/12/08 19:42:49;;;;;;;1.88;0.73;;;-0.60;99.90;;;;;;20979721;28;20607;-52
2023/12/08 19:52:51;;;;;;;1.27;0.70;;;-0.70;99.90;;;;;;20980110;28;20029;-51
2023/12/08 20:02:53;;;;;;;2.47;0.95;;;-0.70;99.90;;;;;;20995026;28;20074;-55
2023/12/08 20:12:55;;;;;;;2.35;0.82;;;-0.80;99.90;;;;;;20995541;28;20036;-56
2023/12/08 20:23:02;;;;;;;1.38;0.85;;;-0.80;99.90;;;;;;20925673;28;20048;-55
2023/12/08 20:33:05;;;;;;;1.35;0.90;;;-0.90;99.90;;;;;;20957684;28;20036;-52
2023/12/08 20:43:07;;;;;;;1.60;0.60;;;-0.90;99.90;;;;;;20961606;28;20474;-55
2023/12/08 20:53:09;;;;;;;1.13;0.50;;;-1.00;99.90;;;;;;20970410;28;20539;-54
2023/12/08 21:03:11;;;;;;;2.80;0.63;;;-1.00;99.90;;;;;;20978308;28;20028;-54
2023/12/08 21:13:16;;;;;;;1.25;0.70;;;-1.00;99.90;;;;;;20966907;28;20031;-47
2023/12/08 21:23:18;;;;;;;0.63;0.40;;;-1.10;99.90;;;;;;20982058;28;20067;-56
2023/12/08 21:33:20;;;;;;;0.90;0.40;;;-1.20;99.90;;;;;;20935972;28;20036;-56
2023/12/08 21:43:22;;;;;;;1.05;0.55;;;-1.20;99.90;;;;;;20979109;28;20037;-56
2023/12/08 21:53:24;;;;;;;0.80;0.35;;;-1.20;99.90;;;;;;20933983;28;20025;-57
2023/12/08 22:03:26;;;;;;;1.83;0.60;;;-1.20;99.90;;;;;;20970344;28;20029;-57
2023/12/08 22:13:27;;;;;;;2.03;0.73;;;-1.30;99.90;;;;;;20988851;28;20051;-56
2023/12/08 22:23:29;;;;;;;1.38;0.40;;;-1.30;99.90;;;;;;20989182;28;20102;-56
2023/12/08 22:33:31;;;;;;;0.60;0.40;;;-1.40;99.90;;;;;;20926540;28;20556;-52
2023/12/08 22:43:33;;;;;;;2.17;0.50;;;-1.40;99.90;;;;;;20916771;28;20032;-57
2023/12/08 22:53:35;;;;;;;1.50;0.90;;;-1.40;99.90;;;;;;20902126;28;20433;-56
2023/12/08 23:03:37;;;;;;;1.30;0.70;;;-1.50;99.90;;;;;;20918550;28;20029;-57
2023/12/08 23:13:38;;;;;;;0.93;0.60;;;-1.50;99.90;;;;;;20917581;28;20091;-52
2023/12/08 23:23:43;;;;;;;2.10;0.60;;;-1.50;99.90;;;;;;20917538;28;20041;-57
2023/12/08 23:33:45;;;;;;;1.67;0.40;;;-1.60;99.90;;;;;;20916441;28;20040;-57
2023/12/08 23:43:47;;;;;;;0.93;0.50;;;-1.60;99.90;;;;;;20915272;28;20094;-54
2023/12/08 23:53:48;;;;;;;0.50;0.30;;;-1.60;99.90;;;;;;20915135;28;20029;-56
